sensor_id;sensor_type;location;lat;lon;timestamp;temperature;humidity
17307;DHT22;8771;48.048;7.682;2023-01-15T00:03:36;12.40;78.30
17307;DHT22;8771;48.048;7.682;2023-01-15T00:08:37;12.40;78.30
17307;DHT22;8771;48.048;7.682;2023-01-15T00:13:41;12.50;78.40
17307;DHT22;8771;48.048;7.682;2023-01-15T00:18:48;12.40;78.30
17307;DHT22;8771;48.048;7.682;2023-01-15T00:23:51;12.50;78.50
17307;DHT22;8771;48.048;7.682;2023-01-15T00:29:12;12.50;78.40
17307;DHT22;8771;48.048;7.682;2023-01-15T00:34:14;12.50;78.40
17307;DHT22;8771;48.048;7.682;2023-01-15T00:39:15;12.40;78.50
17307;DHT22;8771;48.048;7.682;2023-01-15T00:44:19;12.40;78.50
17307;DHT22;8771;48.048;7.682;2023-01-15T00:49:21;12.40;78.50
17307;DHT22;8771;48.048;7.682;2023-01-15T00:54:23;12.30;78.60
17307;DHT22;8771;48.048;7.682;2023-01-15T00:59:26;12.30;78.50
17307;DHT22;8771;48.048;7.682;2023-01-15T01:04:28;12.30;78.60
17307;DHT22;8771;48.048;7.682;2023-01-15T01:09:30;12.30;78.60
17307;DHT22;8771;48.048;7.682;2023-01-15T01:14:34;12.40;78.70
17307;DHT22;8771;48.048;7.682;2023-01-15T01:19:36;12.40;78.70
17307;DHT22;8771;48.048;7.682;2023-01-15T01:24:38;12.40;78.70
17307;DHT22;8771;48.048;7.682;2023-01-15T01:29:42;12.40;78.60
17307;DHT22;8771;48.048;7.682;2023-01-15T01:34:43;12.40;78.50
17307;DHT22;8771;48.048;7.682;2023-01-15T01:39:45;12.50;78.50
17307;DHT22;8771;48.048;7.682;2023-01-15T01:45:02;12.50;78.50
17307;DHT22;8771;48.048;7.682;2023-01-15T01:50:08;12.50;79.30
17307;DHT22;8771;48.048;7.682;2023-01-15T01:55:15;12.60;78.60
17307;DHT22;8771;48.048;7.682;2023-01-15T02:00:19;12.60;78.50
17307;DHT22;8771;48.048;7.682;2023-01-15T02:05:26;12.60;78.50
17307;DHT22;8771;48.048;7.682;2023-01-15T02:10:29;12.60;78.50
17307;DHT22;8771;48.048;7.682;2023-01-15T02:15:36;12.70;78.50
17307;DHT22;8771;48.048;7.682;2023-01-15T02:20:41;12.80;78.50
17307;DHT22;8771;48.048;7.682;2023-01-15T02:25:57;12.80;78.50
17307;DHT22;8771;48.048;7.682;2023-01-15T02:31:09;12.80;78.40
17307;DHT22;8771;48.048;7.682;2023-01-15T02:36:15;12.80;78.40
17307;DHT22;8771;48.048;7.682;2023-01-15T02:41:23;12.90;78.40
17307;DHT22;8771;48.048;7.682;2023-01-15T02:46:29;12.90;78.40
17307;DHT22;8771;48.048;7.682;2023-01-15T02:51:38;12.90;78.40
17307;DHT22;8771;48.048;7.682;2023-01-15T02:56:41;12.80;78.40
17307;DHT22;8771;48.048;7.682;2023-01-15T03:01:49;12.80;78.40
17307;DHT22;8771;48.048;7.682;2023-01-15T03:06:58;12.80;78.40
17307;DHT22;8771;48.048;7.682;2023-01-15T03:12:05;12.80;78.40
17307;DHT22;8771;48.048;7.682;2023-01-15T03:17:14;12.80;78.40
17307;DHT22;8771;48.048;7.682;2023-01-15T03:22:22;12.80;78.40
17307;DHT22;8771;48.048;7.682;2023-01-15T03:27:26;12.80;78.40
17307;DHT22;8771;48.048;7.682;2023-01-15T03:32:30;12.80;78.40
17307;DHT22;8771;48.048;7.682;2023-01-15T03:37:32;12.90;78.50
17307;DHT22;8771;48.048;7.682;2023-01-15T03:42:44;12.90;78.50
17307;DHT22;8771;48.048;7.682;2023-01-15T03:47:55;12.90;78.50
17307;DHT22;8771;48.048;7.682;2023-01-15T03:53:05;12.90;78.60
17307;DHT22;8771;48.048;7.682;2023-01-15T03:58:14;12.90;78.60
17307;DHT22;8771;48.048;7.682;2023-01-15T04:03:22;12.90;78.50
17307;DHT22;8771;48.048;7.682;2023-01-15T04:08:26;12.90;78.60
17307;DHT22;8771;48.048;7.682;2023-01-15T04:13:29;12.90;78.60
17307;DHT22;8771;48.048;7.682;2023-01-15T04:18:33;12.90;78.60
17307;DHT22;8771;48.048;7.682;2023-01-15T04:23:35;12.90;78.60
17307;DHT22;8771;48.048;7.682;2023-01-15T04:28:37;12.90;78.70
17307;DHT22;8771;48.048;7.682;2023-01-15T04:33:40;12.90;78.70
17307;DHT22;8771;48.048;7.682;2023-01-15T04:38:42;12.90;78.60
17307;DHT22;8771;48.048;7.682;2023-01-15T04:43:44;12.90;78.70
17307;DHT22;8771;48.048;7.682;2023-01-15T04:49:07;12.90;78.70
17307;DHT22;8771;48.048;7.682;2023-01-15T04:54:11;12.90;78.70
17307;DHT22;8771;48.048;7.682;2023-01-15T04:59:15;12.90;78.70
17307;DHT22;8771;48.048;7.682;2023-01-15T05:04:19;12.90;78.80
17307;DHT22;8771;48.048;7.682;2023-01-15T05:09:20;12.90;78.80
17307;DHT22;8771;48.048;7.682;2023-01-15T05:14:22;12.90;78.80
17307;DHT22;8771;48.048;7.682;2023-01-15T05:19:26;12.90;78.80
17307;DHT22;8771;48.048;7.682;2023-01-15T05:24:27;12.90;78.80
17307;DHT22;8771;48.048;7.682;2023-01-15T05:29:30;12.90;78.80
17307;DHT22;8771;48.048;7.682;2023-01-15T05:34:33;12.90;78.70
17307;DHT22;8771;48.048;7.682;2023-01-15T05:39:35;12.90;78.80
17307;DHT22;8771;48.048;7.682;2023-01-15T05:44:37;13.00;78.90
17307;DHT22;8771;48.048;7.682;2023-01-15T05:49:40;12.90;78.70
17307;DHT22;8771;48.048;7.682;2023-01-15T05:54:42;12.90;78.80
17307;DHT22;8771;48.048;7.682;2023-01-15T05:59:44;12.90;78.90
17307;DHT22;8771;48.048;7.682;2023-01-15T06:04:48;12.80;78.90
17307;DHT22;8771;48.048;7.682;2023-01-15T06:09:50;12.80;79.00
17307;DHT22;8771;48.048;7.682;2023-01-15T06:14:52;12.80;79.80
17307;DHT22;8771;48.048;7.682;2023-01-15T06:19:55;12.80;79.80
17307;DHT22;8771;48.048;7.682;2023-01-15T06:24:57;12.80;79.00
17307;DHT22;8771;48.048;7.682;2023-01-15T06:29:59;12.80;79.10
17307;DHT22;8771;48.048;7.682;2023-01-15T06:35:03;12.70;79.10
17307;DHT22;8771;48.048;7.682;2023-01-15T06:40:06;12.70;79.20
17307;DHT22;8771;48.048;7.682;2023-01-15T06:45:09;12.70;79.20
17307;DHT22;8771;48.048;7.682;2023-01-15T06:50:30;12.70;79.20
17307;DHT22;8771;48.048;7.682;2023-01-15T06:55:32;12.40;79.20
17307;DHT22;8771;48.048;7.682;2023-01-15T07:00:34;12.10;79.50
17307;DHT22;8771;48.048;7.682;2023-01-15T07:05:38;11.90;79.80
17307;DHT22;8771;48.048;7.682;2023-01-15T07:10:40;11.80;80.20
17307;DHT22;8771;48.048;7.682;2023-01-15T07:15:42;11.70;80.30
17307;DHT22;8771;48.048;7.682;2023-01-15T07:20:45;11.60;80.30
17307;DHT22;8771;48.048;7.682;2023-01-15T07:25:47;11.60;80.30
17307;DHT22;8771;48.048;7.682;2023-01-15T07:30:49;11.50;80.30
17307;DHT22;8771;48.048;7.682;2023-01-15T07:35:52;11.40;80.30
17307;DHT22;8771;48.048;7.682;2023-01-15T07:40:55;11.20;80.30
17307;DHT22;8771;48.048;7.682;2023-01-15T07:46:11;11.00;80.30
17307;DHT22;8771;48.048;7.682;2023-01-15T07:51:31;10.90;80.50
17307;DHT22;8771;48.048;7.682;2023-01-15T07:56:33;10.80;80.50
17307;DHT22;8771;48.048;7.682;2023-01-15T08:01:35;10.80;80.60
17307;DHT22;8771;48.048;7.682;2023-01-15T08:06:38;10.80;80.50
17307;DHT22;8771;48.048;7.682;2023-01-15T08:11:40;10.80;80.40
17307;DHT22;8771;48.048;7.682;2023-01-15T08:16:59;10.80;80.40
17307;DHT22;8771;48.048;7.682;2023-01-15T08:22:04;10.80;80.40
17307;DHT22;8771;48.048;7.682;2023-01-15T08:27:05;10.80;80.30
17307;DHT22;8771;48.048;7.682;2023-01-15T08:32:07;10.80;80.20
17307;DHT22;8771;48.048;7.682;2023-01-15T08:37:11;10.80;80.20
17307;DHT22;8771;48.048;7.682;2023-01-15T08:42:13;10.80;80.20
17307;DHT22;8771;48.048;7.682;2023-01-15T08:47:15;10.80;80.30
17307;DHT22;8771;48.048;7.682;2023-01-15T08:52:18;10.80;80.30
17307;DHT22;8771;48.048;7.682;2023-01-15T08:57:20;10.70;80.20
17307;DHT22;8771;48.048;7.682;2023-01-15T09:02:22;10.50;80.40
17307;DHT22;8771;48.048;7.682;2023-01-15T09:07:25;10.30;80.50
17307;DHT22;8771;48.048;7.682;2023-01-15T09:12:27;10.30;80.50
17307;DHT22;8771;48.048;7.682;2023-01-15T09:17:30;10.20;80.50
17307;DHT22;8771;48.048;7.682;2023-01-15T09:22:34;10.10;80.50
17307;DHT22;8771;48.048;7.682;2023-01-15T09:27:36;10.10;80.50
17307;DHT22;8771;48.048;7.682;2023-01-15T09:32:38;10.10;80.60
17307;DHT22;8771;48.048;7.682;2023-01-15T09:37:41;10.10;80.60
17307;DHT22;8771;48.048;7.682;2023-01-15T09:42:48;10.10;80.50
17307;DHT22;8771;48.048;7.682;2023-01-15T09:48:05;10.10;80.50
17307;DHT22;8771;48.048;7.682;2023-01-15T09:58:42;9.90;80.50
17307;DHT22;8771;48.048;7.682;2023-01-15T10:03:47;9.90;80.60
17307;DHT22;8771;48.048;7.682;2023-01-15T10:08:50;9.80;80.60
17307;DHT22;8771;48.048;7.682;2023-01-15T10:14:02;9.70;80.70
17307;DHT22;8771;48.048;7.682;2023-01-15T10:19:08;9.60;80.60
17307;DHT22;8771;48.048;7.682;2023-01-15T10:24:16;9.50;80.70
17307;DHT22;8771;48.048;7.682;2023-01-15T10:29:24;9.50;80.80
17307;DHT22;8771;48.048;7.682;2023-01-15T10:34:54;9.40;80.90
17307;DHT22;8771;48.048;7.682;2023-01-15T10:45:37;9.20;80.70
17307;DHT22;8771;48.048;7.682;2023-01-15T10:50:41;9.20;80.80
17307;DHT22;8771;48.048;7.682;2023-01-15T10:55:44;9.20;80.90
17307;DHT22;8771;48.048;7.682;2023-01-15T11:00:52;9.20;80.80
17307;DHT22;8771;48.048;7.682;2023-01-15T11:05:55;9.20;80.70
17307;DHT22;8771;48.048;7.682;2023-01-15T11:11:08;9.30;80.70
17307;DHT22;8771;48.048;7.682;2023-01-15T11:16:17;9.30;80.60
17307;DHT22;8771;48.048;7.682;2023-01-15T11:21:39;9.30;80.70
17307;DHT22;8771;48.048;7.682;2023-01-15T11:26:46;9.20;80.60
17307;DHT22;8771;48.048;7.682;2023-01-15T11:31:50;9.20;80.60
17307;DHT22;8771;48.048;7.682;2023-01-15T11:37:00;9.10;80.70
17307;DHT22;8771;48.048;7.682;2023-01-15T11:42:11;9.20;80.70
17307;DHT22;8771;48.048;7.682;2023-01-15T11:47:34;9.10;80.60
17307;DHT22;8771;48.048;7.682;2023-01-15T11:52:54;9.10;80.90
17307;DHT22;8771;48.048;7.682;2023-01-15T11:57:57;9.00;84.90
17307;DHT22;8771;48.048;7.682;2023-01-15T13:45:55;10.40;81.70
17307;DHT22;8771;48.048;7.682;2023-01-15T13:50:59;10.40;78.20
17307;DHT22;8771;48.048;7.682;2023-01-15T13:56:04;10.40;78.40
17307;DHT22;8771;48.048;7.682;2023-01-15T14:01:21;10.40;78.70
17307;DHT22;8771;48.048;7.682;2023-01-15T14:06:38;10.50;78.80
17307;DHT22;8771;48.048;7.682;2023-01-15T14:11:55;10.50;78.90
17307;DHT22;8771;48.048;7.682;2023-01-15T14:17:10;10.40;79.10
17307;DHT22;8771;48.048;7.682;2023-01-15T14:22:31;10.40;79.40
17307;DHT22;8771;48.048;7.682;2023-01-15T14:27:44;10.40;79.60
17307;DHT22;8771;48.048;7.682;2023-01-15T14:32:59;10.50;79.40
17307;DHT22;8771;48.048;7.682;2023-01-15T14:38:06;10.60;79.40
17307;DHT22;8771;48.048;7.682;2023-01-15T14:43:16;10.60;79.40
17307;DHT22;8771;48.048;7.682;2023-01-15T14:48:20;10.50;79.50
17307;DHT22;8771;48.048;7.682;2023-01-15T14:53:39;10.30;79.70
17307;DHT22;8771;48.048;7.682;2023-01-15T14:58:51;10.20;80.00
17307;DHT22;8771;48.048;7.682;2023-01-15T15:03:57;10.10;80.20
17307;DHT22;8771;48.048;7.682;2023-01-15T15:09:03;10.00;80.30
17307;DHT22;8771;48.048;7.682;2023-01-15T15:14:08;9.90;80.50
17307;DHT22;8771;48.048;7.682;2023-01-15T15:19:16;9.70;80.50
17307;DHT22;8771;48.048;7.682;2023-01-15T15:24:25;9.60;80.60
17307;DHT22;8771;48.048;7.682;2023-01-15T15:29:28;9.50;80.70
17307;DHT22;8771;48.048;7.682;2023-01-15T15:34:33;9.40;80.70
17307;DHT22;8771;48.048;7.682;2023-01-15T15:39:40;9.30;80.80
17307;DHT22;8771;48.048;7.682;2023-01-15T15:44:50;9.10;80.90
17307;DHT22;8771;48.048;7.682;2023-01-15T16:25:55;8.60;99.90
17307;DHT22;8771;48.048;7.682;2023-01-15T16:31:00;8.40;81.20
17307;DHT22;8771;48.048;7.682;2023-01-15T16:36:04;8.30;80.80
17307;DHT22;8771;48.048;7.682;2023-01-15T16:41:17;8.20;80.80
17307;DHT22;8771;48.048;7.682;2023-01-15T16:46:21;8.00;80.90
17307;DHT22;8771;48.048;7.682;2023-01-15T16:51:31;7.90;80.90
17307;DHT22;8771;48.048;7.682;2023-01-15T16:56:51;7.80;81.00
17307;DHT22;8771;48.048;7.682;2023-01-15T17:01:54;7.60;81.00
17307;DHT22;8771;48.048;7.682;2023-01-15T17:06:59;7.40;81.20
17307;DHT22;8771;48.048;7.682;2023-01-15T17:12:06;7.30;83.60
17307;DHT22;8771;48.048;7.682;2023-01-15T17:17:16;7.10;82.10
17307;DHT22;8771;48.048;7.682;2023-01-15T17:22:25;7.00;81.20
17307;DHT22;8771;48.048;7.682;2023-01-15T17:27:29;6.90;81.20
17307;DHT22;8771;48.048;7.682;2023-01-15T17:32:34;6.80;81.10
17307;DHT22;8771;48.048;7.682;2023-01-15T17:37:36;6.80;81.10
17307;DHT22;8771;48.048;7.682;2023-01-15T17:42:40;6.70;81.00
17307;DHT22;8771;48.048;7.682;2023-01-15T17:47:42;6.60;80.90
17307;DHT22;8771;48.048;7.682;2023-01-15T17:52:44;6.50;80.90
17307;DHT22;8771;48.048;7.682;2023-01-15T17:57:48;6.50;81.00
17307;DHT22;8771;48.048;7.682;2023-01-15T18:08:32;6.30;80.20
17307;DHT22;8771;48.048;7.682;2023-01-15T18:13:36;6.30;80.90
17307;DHT22;8771;48.048;7.682;2023-01-15T18:18:41;6.20;80.80
17307;DHT22;8771;48.048;7.682;2023-01-15T18:23:43;6.20;80.90
17307;DHT22;8771;48.048;7.682;2023-01-15T18:28:47;6.20;80.80
17307;DHT22;8771;48.048;7.682;2023-01-15T18:33:50;6.10;80.80
17307;DHT22;8771;48.048;7.682;2023-01-15T18:38:52;6.10;80.90
17307;DHT22;8771;48.048;7.682;2023-01-15T18:43:56;6.10;80.90
17307;DHT22;8771;48.048;7.682;2023-01-15T18:49:15;6.10;80.90
17307;DHT22;8771;48.048;7.682;2023-01-15T18:54:17;6.00;80.70
17307;DHT22;8771;48.048;7.682;2023-01-15T18:59:21;6.00;80.70
17307;DHT22;8771;48.048;7.682;2023-01-15T19:04:23;6.00;80.70
17307;DHT22;8771;48.048;7.682;2023-01-15T19:09:25;6.00;80.60
17307;DHT22;8771;48.048;7.682;2023-01-15T19:14:29;6.00;80.60
17307;DHT22;8771;48.048;7.682;2023-01-15T19:19:48;6.00;80.60
17307;DHT22;8771;48.048;7.682;2023-01-15T19:24:50;6.00;80.50
17307;DHT22;8771;48.048;7.682;2023-01-15T19:29:53;6.00;80.30
17307;DHT22;8771;48.048;7.682;2023-01-15T19:34:55;6.00;80.40
17307;DHT22;8771;48.048;7.682;2023-01-15T19:39:59;5.90;80.40
17307;DHT22;8771;48.048;7.682;2023-01-15T19:45:02;5.90;80.40
17307;DHT22;8771;48.048;7.682;2023-01-15T19:50:25;5.80;80.50
17307;DHT22;8771;48.048;7.682;2023-01-15T19:55:29;5.80;80.50
17307;DHT22;8771;48.048;7.682;2023-01-15T20:00:35;5.80;80.60
17307;DHT22;8771;48.048;7.682;2023-01-15T20:05:39;5.80;80.60
17307;DHT22;8771;48.048;7.682;2023-01-15T20:10:42;5.90;80.60
17307;DHT22;8771;48.048;7.682;2023-01-15T20:15:46;5.90;80.60
17307;DHT22;8771;48.048;7.682;2023-01-15T20:20:48;6.00;80.50
17307;DHT22;8771;48.048;7.682;2023-01-15T20:25:50;6.10;80.50
17307;DHT22;8771;48.048;7.682;2023-01-15T20:30:54;6.10;80.30
17307;DHT22;8771;48.048;7.682;2023-01-15T20:36:01;6.20;80.20
17307;DHT22;8771;48.048;7.682;2023-01-15T20:41:05;6.30;80.20
17307;DHT22;8771;48.048;7.682;2023-01-15T20:46:23;6.30;80.10
17307;DHT22;8771;48.048;7.682;2023-01-15T20:51:25;6.40;80.10
17307;DHT22;8771;48.048;7.682;2023-01-15T20:56:27;6.40;80.00
17307;DHT22;8771;48.048;7.682;2023-01-15T21:01:30;6.40;80.00
17307;DHT22;8771;48.048;7.682;2023-01-15T21:06:32;6.40;79.90
17307;DHT22;8771;48.048;7.682;2023-01-15T21:11:34;6.40;79.90
17307;DHT22;8771;48.048;7.682;2023-01-15T21:16:38;6.40;80.00
17307;DHT22;8771;48.048;7.682;2023-01-15T21:21:40;6.50;80.00
17307;DHT22;8771;48.048;7.682;2023-01-15T21:26:42;6.40;79.90
17307;DHT22;8771;48.048;7.682;2023-01-15T21:31:49;6.40;79.90
17307;DHT22;8771;48.048;7.682;2023-01-15T21:36:55;6.40;80.00
17307;DHT22;8771;48.048;7.682;2023-01-15T21:41:57;6.30;80.00
17307;DHT22;8771;48.048;7.682;2023-01-15T21:47:18;6.30;80.10
17307;DHT22;8771;48.048;7.682;2023-01-15T21:52:20;6.20;80.20
17307;DHT22;8771;48.048;7.682;2023-01-15T21:57:22;6.10;80.20
17307;DHT22;8771;48.048;7.682;2023-01-15T22:02:26;6.10;80.30
17307;DHT22;8771;48.048;7.682;2023-01-15T22:07:29;6.10;80.30
17307;DHT22;8771;48.048;7.682;2023-01-15T22:12:31;6.10;80.20
17307;DHT22;8771;48.048;7.682;2023-01-15T22:17:39;6.00;80.10
17307;DHT22;8771;48.048;7.682;2023-01-15T22:22:41;6.00;80.90
17307;DHT22;8771;48.048;7.682;2023-01-15T22:27:43;5.90;80.10
17307;DHT22;8771;48.048;7.682;2023-01-15T22:37:48;7.30;80.40
17307;DHT22;8771;48.048;7.682;2023-01-15T22:42:50;5.70;80.00
17307;DHT22;8771;48.048;7.682;2023-01-15T22:47:53;5.60;80.00
17307;DHT22;8771;48.048;7.682;2023-01-15T22:52:55;5.60;80.00
17307;DHT22;8771;48.048;7.682;2023-01-15T22:57:57;5.60;79.90
17307;DHT22;8771;48.048;7.682;2023-01-15T23:03:00;5.60;79.80
17307;DHT22;8771;48.048;7.682;2023-01-15T23:08:05;5.60;79.80
17307;DHT22;8771;48.048;7.682;2023-01-15T23:13:07;5.60;79.80
17307;DHT22;8771;48.048;7.682;2023-01-15T23:18:10;5.60;79.80
17307;DHT22;8771;48.048;7.682;2023-01-15T23:23:12;5.70;79.60
17307;DHT22;8771;48.048;7.682;2023-01-15T23:28:14;5.80;79.40
17307;DHT22;8771;48.048;7.682;2023-01-15T23:33:18;5.80;79.30
17307;DHT22;8771;48.048;7.682;2023-01-15T23:38:20;5.90;79.30
17307;DHT22;8771;48.048;7.682;2023-01-15T23:43:22;5.90;79.20
17307;DHT22;8771;48.048;7.682;2023-01-15T23:48:43;6.00;79.10
17307;DHT22;8771;48.048;7.682;2023-01-15T23:53:45;6.00;78.90
17307;DHT22;8771;48.048;7.682;2023-01-15T23:58:47;6.10;79.00
